Airport View

Enter AWOS ICAO identifier for current METAR.

ex. KFNL

KBKN 251700Z AUTO 01010G15KT 10SM SCT017 BKN024 OVC048 07/03 A3013 RMK AO2

25 Oct 2020 17:04

Frequency: 120.575

Phone: 580-363-0688

Other Area AWOS: KPNC - KWLD - KWDG - KEND

TAF KPNC 251120Z 2512/2612 04012KT P6SM OVC015 FM260000 02014G20KT 5SM -DZ BR OVC008